sensor_id;sensor_type;location;lat;lon;timestamp;P1;durP1;ratioP1;P2;durP2;ratioP2
6517;SDS011;3292;48.944;9.240;2023-09-19T00:01:42;2.10;;;1.30;;
6517;SDS011;3292;48.944;9.240;2023-09-19T00:04:12;1.63;;;1.50;;
6517;SDS011;3292;48.944;9.240;2023-09-19T00:06:39;1.70;;;1.57;;
6517;SDS011;3292;48.944;9.240;2023-09-19T00:09:07;1.57;;;1.40;;
6517;SDS011;3292;48.944;9.240;2023-09-19T00:11:35;1.60;;;1.50;;
6517;SDS011;3292;48.944;9.240;2023-09-19T00:14:02;1.50;;;1.40;;
6517;SDS011;3292;48.944;9.240;2023-09-19T00:16:30;1.80;;;1.57;;
6517;SDS011;3292;48.944;9.240;2023-09-19T00:18:57;2.53;;;1.50;;
6517;SDS011;3292;48.944;9.240;2023-09-19T00:21:29;1.73;;;1.50;;
6517;SDS011;3292;48.944;9.240;2023-09-19T00:23:57;2.50;;;1.60;;
6517;SDS011;3292;48.944;9.240;2023-09-19T00:26:24;1.63;;;1.53;;
6517;SDS011;3292;48.944;9.240;2023-09-19T00:28:51;2.23;;;1.40;;
6517;SDS011;3292;48.944;9.240;2023-09-19T00:31:18;3.20;;;1.80;;
6517;SDS011;3292;48.944;9.240;2023-09-19T00:33:50;1.90;;;1.70;;
6517;SDS011;3292;48.944;9.240;2023-09-19T00:36:18;1.83;;;1.50;;
6517;SDS011;3292;48.944;9.240;2023-09-19T00:38:46;2.43;;;1.60;;
6517;SDS011;3292;48.944;9.240;2023-09-19T00:41:13;3.20;;;2.00;;
6517;SDS011;3292;48.944;9.240;2023-09-19T00:43:40;1.80;;;1.40;;
6517;SDS011;3292;48.944;9.240;2023-09-19T00:46:06;1.73;;;1.63;;
6517;SDS011;3292;48.944;9.240;2023-09-19T00:48:36;1.93;;;1.60;;
6517;SDS011;3292;48.944;9.240;2023-09-19T00:51:09;2.33;;;1.60;;
6517;SDS011;3292;48.944;9.240;2023-09-19T00:53:36;1.67;;;1.57;;
6517;SDS011;3292;48.944;9.240;2023-09-19T00:56:05;1.83;;;1.43;;
6517;SDS011;3292;48.944;9.240;2023-09-19T00:58:33;3.77;;;1.80;;
6517;SDS011;3292;48.944;9.240;2023-09-19T01:01:00;1.60;;;1.50;;
6517;SDS011;3292;48.944;9.240;2023-09-19T01:03:28;2.20;;;1.53;;
6517;SDS011;3292;48.944;9.240;2023-09-19T01:05:55;1.70;;;1.60;;
6517;SDS011;3292;48.944;9.240;2023-09-19T01:08:22;2.47;;;1.97;;
6517;SDS011;3292;48.944;9.240;2023-09-19T01:10:51;1.70;;;1.60;;
6517;SDS011;3292;48.944;9.240;2023-09-19T01:13:24;2.23;;;1.40;;
6517;SDS011;3292;48.944;9.240;2023-09-19T01:15:59;1.90;;;1.60;;
6517;SDS011;3292;48.944;9.240;2023-09-19T01:18:35;2.70;;;1.67;;
6517;SDS011;3292;48.944;9.240;2023-09-19T01:21:11;1.50;;;1.40;;
6517;SDS011;3292;48.944;9.240;2023-09-19T01:23:54;3.23;;;1.73;;
6517;SDS011;3292;48.944;9.240;2023-09-19T01:26:43;1.70;;;1.50;;
6517;SDS011;3292;48.944;9.240;2023-09-19T01:29:26;2.43;;;1.70;;
6517;SDS011;3292;48.944;9.240;2023-09-19T01:32:05;2.50;;;1.70;;
6517;SDS011;3292;48.944;9.240;2023-09-19T01:34:44;1.53;;;1.43;;
6517;SDS011;3292;48.944;9.240;2023-09-19T01:37:13;1.70;;;1.47;;
6517;SDS011;3292;48.944;9.240;2023-09-19T01:39:44;1.70;;;1.60;;
6517;SDS011;3292;48.944;9.240;2023-09-19T01:42:18;2.20;;;1.77;;
6517;SDS011;3292;48.944;9.240;2023-09-19T01:44:51;2.23;;;1.60;;
6517;SDS011;3292;48.944;9.240;2023-09-19T01:47:26;1.50;;;1.40;;
6517;SDS011;3292;48.944;9.240;2023-09-19T01:49:59;3.00;;;1.77;;
6517;SDS011;3292;48.944;9.240;2023-09-19T01:52:35;1.60;;;1.50;;
6517;SDS011;3292;48.944;9.240;2023-09-19T01:55:08;3.23;;;1.70;;
6517;SDS011;3292;48.944;9.240;2023-09-19T01:57:38;2.83;;;1.77;;
6517;SDS011;3292;48.944;9.240;2023-09-19T02:00:12;1.90;;;1.40;;
6517;SDS011;3292;48.944;9.240;2023-09-19T02:02:44;1.40;;;1.30;;
6517;SDS011;3292;48.944;9.240;2023-09-19T02:05:12;1.60;;;1.50;;
6517;SDS011;3292;48.944;9.240;2023-09-19T02:07:39;1.47;;;1.37;;
6517;SDS011;3292;48.944;9.240;2023-09-19T02:10:06;2.47;;;1.50;;
6517;SDS011;3292;48.944;9.240;2023-09-19T02:12:35;1.40;;;1.30;;
6517;SDS011;3292;48.944;9.240;2023-09-19T02:15:02;3.37;;;1.70;;
6517;SDS011;3292;48.944;9.240;2023-09-19T02:17:32;1.50;;;1.40;;
6517;SDS011;3292;48.944;9.240;2023-09-19T02:20:00;2.10;;;1.50;;
6517;SDS011;3292;48.944;9.240;2023-09-19T02:22:28;2.03;;;1.57;;
6517;SDS011;3292;48.944;9.240;2023-09-19T02:24:55;1.60;;;1.40;;
6517;SDS011;3292;48.944;9.240;2023-09-19T02:27:25;1.77;;;1.57;;
6517;SDS011;3292;48.944;9.240;2023-09-19T02:29:52;2.23;;;1.53;;
6517;SDS011;3292;48.944;9.240;2023-09-19T02:32:19;1.97;;;1.60;;
6517;SDS011;3292;48.944;9.240;2023-09-19T02:34:46;1.87;;;1.50;;
6517;SDS011;3292;48.944;9.240;2023-09-19T02:37:15;1.70;;;1.37;;
6517;SDS011;3292;48.944;9.240;2023-09-19T02:39:44;1.60;;;1.50;;
6517;SDS011;3292;48.944;9.240;2023-09-19T02:42:11;1.53;;;1.43;;
6517;SDS011;3292;48.944;9.240;2023-09-19T02:44:38;2.93;;;1.63;;
6517;SDS011;3292;48.944;9.240;2023-09-19T02:47:05;2.83;;;1.70;;
6517;SDS011;3292;48.944;9.240;2023-09-19T02:49:32;1.93;;;1.73;;
6517;SDS011;3292;48.944;9.240;2023-09-19T02:52:00;3.63;;;1.70;;
6517;SDS011;3292;48.944;9.240;2023-09-19T02:54:29;2.27;;;1.70;;
6517;SDS011;3292;48.944;9.240;2023-09-19T02:56:56;1.70;;;1.60;;
6517;SDS011;3292;48.944;9.240;2023-09-19T02:59:24;2.30;;;1.53;;
6517;SDS011;3292;48.944;9.240;2023-09-19T03:01:51;1.60;;;1.40;;
6517;SDS011;3292;48.944;9.240;2023-09-19T03:04:19;2.53;;;1.30;;
6517;SDS011;3292;48.944;9.240;2023-09-19T03:06:46;2.40;;;1.57;;
6517;SDS011;3292;48.944;9.240;2023-09-19T03:09:16;1.90;;;1.50;;
6517;SDS011;3292;48.944;9.240;2023-09-19T03:11:45;1.50;;;1.30;;
6517;SDS011;3292;48.944;9.240;2023-09-19T03:14:12;1.97;;;1.40;;
6517;SDS011;3292;48.944;9.240;2023-09-19T03:16:40;3.37;;;1.60;;
6517;SDS011;3292;48.944;9.240;2023-09-19T03:19:09;3.60;;;1.70;;
6517;SDS011;3292;48.944;9.240;2023-09-19T03:21:36;2.63;;;1.60;;
6517;SDS011;3292;48.944;9.240;2023-09-19T03:24:04;2.10;;;1.40;;
6517;SDS011;3292;48.944;9.240;2023-09-19T03:26:31;2.00;;;1.57;;
6517;SDS011;3292;48.944;9.240;2023-09-19T03:29:00;1.40;;;1.30;;
6517;SDS011;3292;48.944;9.240;2023-09-19T03:31:33;1.50;;;1.40;;
6517;SDS011;3292;48.944;9.240;2023-09-19T03:34:01;1.60;;;1.50;;
6517;SDS011;3292;48.944;9.240;2023-09-19T03:36:29;1.60;;;1.40;;
6517;SDS011;3292;48.944;9.240;2023-09-19T03:38:56;2.07;;;1.60;;
6517;SDS011;3292;48.944;9.240;2023-09-19T03:41:23;1.60;;;1.50;;
6517;SDS011;3292;48.944;9.240;2023-09-19T03:43:50;2.03;;;1.47;;
6517;SDS011;3292;48.944;9.240;2023-09-19T03:46:18;1.60;;;1.30;;
6517;SDS011;3292;48.944;9.240;2023-09-19T03:48:45;1.53;;;1.40;;
6517;SDS011;3292;48.944;9.240;2023-09-19T03:51:11;1.67;;;1.43;;
6517;SDS011;3292;48.944;9.240;2023-09-19T03:53:38;1.53;;;1.43;;
6517;SDS011;3292;48.944;9.240;2023-09-19T03:56:04;1.60;;;1.50;;
6517;SDS011;3292;48.944;9.240;2023-09-19T03:58:31;1.70;;;1.60;;
6517;SDS011;3292;48.944;9.240;2023-09-19T04:01:00;1.73;;;1.60;;
6517;SDS011;3292;48.944;9.240;2023-09-19T04:03:28;4.70;;;1.73;;
6517;SDS011;3292;48.944;9.240;2023-09-19T04:06:00;2.00;;;1.50;;
6517;SDS011;3292;48.944;9.240;2023-09-19T04:08:27;1.70;;;1.60;;
6517;SDS011;3292;48.944;9.240;2023-09-19T04:10:54;2.20;;;1.63;;
6517;SDS011;3292;48.944;9.240;2023-09-19T04:13:21;2.33;;;1.50;;
6517;SDS011;3292;48.944;9.240;2023-09-19T04:15:48;4.50;;;1.50;;
6517;SDS011;3292;48.944;9.240;2023-09-19T04:18:15;1.80;;;1.50;;
6517;SDS011;3292;48.944;9.240;2023-09-19T04:20:48;2.37;;;1.70;;
6517;SDS011;3292;48.944;9.240;2023-09-19T04:23:15;2.93;;;1.70;;
6517;SDS011;3292;48.944;9.240;2023-09-19T04:25:42;2.90;;;1.73;;
6517;SDS011;3292;48.944;9.240;2023-09-19T04:28:08;1.60;;;1.50;;
6517;SDS011;3292;48.944;9.240;2023-09-19T04:30:36;2.00;;;1.80;;
6517;SDS011;3292;48.944;9.240;2023-09-19T04:33:05;2.13;;;1.80;;
6517;SDS011;3292;48.944;9.240;2023-09-19T04:35:32;2.23;;;1.60;;
6517;SDS011;3292;48.944;9.240;2023-09-19T04:38:01;1.97;;;1.77;;
6517;SDS011;3292;48.944;9.240;2023-09-19T04:40:31;2.73;;;1.70;;
6517;SDS011;3292;48.944;9.240;2023-09-19T04:42:59;2.00;;;1.80;;
6517;SDS011;3292;48.944;9.240;2023-09-19T04:45:26;2.70;;;2.00;;
6517;SDS011;3292;48.944;9.240;2023-09-19T04:47:53;3.07;;;1.77;;
6517;SDS011;3292;48.944;9.240;2023-09-19T04:50:21;3.20;;;2.03;;
6517;SDS011;3292;48.944;9.240;2023-09-19T04:52:50;2.30;;;1.80;;
6517;SDS011;3292;48.944;9.240;2023-09-19T04:55:18;3.73;;;2.07;;
6517;SDS011;3292;48.944;9.240;2023-09-19T04:57:45;2.03;;;1.80;;
6517;SDS011;3292;48.944;9.240;2023-09-19T05:00:13;2.63;;;1.90;;
6517;SDS011;3292;48.944;9.240;2023-09-19T05:02:42;2.37;;;2.00;;
6517;SDS011;3292;48.944;9.240;2023-09-19T05:05:09;2.33;;;1.80;;
6517;SDS011;3292;48.944;9.240;2023-09-19T05:07:36;2.83;;;1.90;;
6517;SDS011;3292;48.944;9.240;2023-09-19T05:10:05;4.00;;;2.03;;
6517;SDS011;3292;48.944;9.240;2023-09-19T05:12:34;3.97;;;2.20;;
6517;SDS011;3292;48.944;9.240;2023-09-19T05:15:01;2.37;;;2.00;;
6517;SDS011;3292;48.944;9.240;2023-09-19T05:17:29;3.53;;;2.10;;
6517;SDS011;3292;48.944;9.240;2023-09-19T05:19:56;3.30;;;2.43;;
6517;SDS011;3292;48.944;9.240;2023-09-19T05:22:26;4.20;;;2.53;;
6517;SDS011;3292;48.944;9.240;2023-09-19T05:24:53;4.50;;;2.63;;
6517;SDS011;3292;48.944;9.240;2023-09-19T05:27:20;3.77;;;2.47;;
6517;SDS011;3292;48.944;9.240;2023-09-19T05:29:48;2.90;;;2.60;;
6517;SDS011;3292;48.944;9.240;2023-09-19T05:32:15;3.30;;;2.33;;
6517;SDS011;3292;48.944;9.240;2023-09-19T05:34:43;2.47;;;2.23;;
6517;SDS011;3292;48.944;9.240;2023-09-19T05:37:09;3.33;;;2.20;;
6517;SDS011;3292;48.944;9.240;2023-09-19T05:39:36;3.50;;;2.23;;
6517;SDS011;3292;48.944;9.240;2023-09-19T05:42:03;2.93;;;2.10;;
6517;SDS011;3292;48.944;9.240;2023-09-19T05:44:30;4.27;;;2.50;;
6517;SDS011;3292;48.944;9.240;2023-09-19T05:46:59;2.23;;;2.03;;
6517;SDS011;3292;48.944;9.240;2023-09-19T05:49:26;3.73;;;2.33;;
6517;SDS011;3292;48.944;9.240;2023-09-19T05:51:53;2.93;;;2.23;;
6517;SDS011;3292;48.944;9.240;2023-09-19T05:54:22;2.93;;;2.27;;
6517;SDS011;3292;48.944;9.240;2023-09-19T05:56:49;2.97;;;2.30;;
6517;SDS011;3292;48.944;9.240;2023-09-19T05:59:18;2.50;;;2.30;;
6517;SDS011;3292;48.944;9.240;2023-09-19T06:01:45;4.00;;;2.47;;
6517;SDS011;3292;48.944;9.240;2023-09-19T06:04:13;4.30;;;2.20;;
6517;SDS011;3292;48.944;9.240;2023-09-19T06:06:40;4.50;;;2.40;;
6517;SDS011;3292;48.944;9.240;2023-09-19T06:09:07;3.23;;;2.10;;
6517;SDS011;3292;48.944;9.240;2023-09-19T06:11:34;3.43;;;2.40;;
6517;SDS011;3292;48.944;9.240;2023-09-19T06:14:01;4.90;;;2.53;;
6517;SDS011;3292;48.944;9.240;2023-09-19T06:16:28;4.13;;;2.83;;
6517;SDS011;3292;48.944;9.240;2023-09-19T06:18:55;2.67;;;2.20;;
6517;SDS011;3292;48.944;9.240;2023-09-19T06:21:23;2.67;;;2.47;;
6517;SDS011;3292;48.944;9.240;2023-09-19T06:23:51;3.53;;;2.40;;
6517;SDS011;3292;48.944;9.240;2023-09-19T06:26:19;4.27;;;2.53;;
6517;SDS011;3292;48.944;9.240;2023-09-19T06:28:45;3.40;;;2.50;;
6517;SDS011;3292;48.944;9.240;2023-09-19T06:31:12;3.43;;;2.70;;
6517;SDS011;3292;48.944;9.240;2023-09-19T06:33:39;2.97;;;2.20;;
6517;SDS011;3292;48.944;9.240;2023-09-19T06:36:06;2.43;;;2.23;;
6517;SDS011;3292;48.944;9.240;2023-09-19T06:38:34;3.13;;;2.33;;
6517;SDS011;3292;48.944;9.240;2023-09-19T06:41:02;3.37;;;2.57;;
6517;SDS011;3292;48.944;9.240;2023-09-19T06:43:30;3.30;;;2.40;;
6517;SDS011;3292;48.944;9.240;2023-09-19T06:45:57;4.00;;;2.40;;
6517;SDS011;3292;48.944;9.240;2023-09-19T06:48:24;3.40;;;2.37;;
6517;SDS011;3292;48.944;9.240;2023-09-19T06:50:52;5.67;;;2.50;;
6517;SDS011;3292;48.944;9.240;2023-09-19T06:53:20;5.10;;;2.60;;
6517;SDS011;3292;48.944;9.240;2023-09-19T06:55:48;3.63;;;2.67;;
6517;SDS011;3292;48.944;9.240;2023-09-19T06:58:15;3.77;;;2.53;;
6517;SDS011;3292;48.944;9.240;2023-09-19T07:00:43;5.13;;;2.47;;
6517;SDS011;3292;48.944;9.240;2023-09-19T07:03:10;3.43;;;2.20;;
6517;SDS011;3292;48.944;9.240;2023-09-19T07:05:40;3.57;;;2.27;;
6517;SDS011;3292;48.944;9.240;2023-09-19T07:08:08;3.97;;;2.30;;
6517;SDS011;3292;48.944;9.240;2023-09-19T07:10:37;4.27;;;2.13;;
6517;SDS011;3292;48.944;9.240;2023-09-19T07:13:07;3.20;;;2.30;;
6517;SDS011;3292;48.944;9.240;2023-09-19T07:15:35;2.90;;;2.30;;
6517;SDS011;3292;48.944;9.240;2023-09-19T07:18:04;2.77;;;2.33;;
6517;SDS011;3292;48.944;9.240;2023-09-19T07:20:35;4.07;;;2.17;;
6517;SDS011;3292;48.944;9.240;2023-09-19T07:23:03;3.67;;;2.20;;
6517;SDS011;3292;48.944;9.240;2023-09-19T07:25:31;4.70;;;2.17;;
6517;SDS011;3292;48.944;9.240;2023-09-19T07:27:58;3.57;;;2.07;;
6517;SDS011;3292;48.944;9.240;2023-09-19T07:30:26;3.90;;;2.20;;
6517;SDS011;3292;48.944;9.240;2023-09-19T07:32:54;3.40;;;2.00;;
6517;SDS011;3292;48.944;9.240;2023-09-19T07:35:20;5.80;;;2.60;;
6517;SDS011;3292;48.944;9.240;2023-09-19T07:37:47;3.63;;;2.40;;
6517;SDS011;3292;48.944;9.240;2023-09-19T07:40:16;5.60;;;2.10;;
6517;SDS011;3292;48.944;9.240;2023-09-19T07:42:43;2.40;;;2.20;;
6517;SDS011;3292;48.944;9.240;2023-09-19T07:45:12;4.60;;;2.10;;
6517;SDS011;3292;48.944;9.240;2023-09-19T07:47:43;3.03;;;2.10;;
6517;SDS011;3292;48.944;9.240;2023-09-19T07:50:10;3.03;;;2.03;;
6517;SDS011;3292;48.944;9.240;2023-09-19T07:52:37;4.73;;;2.13;;
6517;SDS011;3292;48.944;9.240;2023-09-19T07:55:04;3.90;;;2.10;;
6517;SDS011;3292;48.944;9.240;2023-09-19T07:57:34;3.30;;;2.00;;
6517;SDS011;3292;48.944;9.240;2023-09-19T08:00:01;4.50;;;2.07;;
6517;SDS011;3292;48.944;9.240;2023-09-19T08:02:30;4.27;;;2.13;;
6517;SDS011;3292;48.944;9.240;2023-09-19T08:05:01;3.33;;;1.90;;
6517;SDS011;3292;48.944;9.240;2023-09-19T08:07:31;2.93;;;2.00;;
6517;SDS011;3292;48.944;9.240;2023-09-19T08:09:58;2.27;;;1.80;;
6517;SDS011;3292;48.944;9.240;2023-09-19T08:12:24;3.93;;;1.90;;
6517;SDS011;3292;48.944;9.240;2023-09-19T08:14:51;2.27;;;1.97;;
6517;SDS011;3292;48.944;9.240;2023-09-19T08:17:20;4.00;;;1.70;;
6517;SDS011;3292;48.944;9.240;2023-09-19T08:19:48;4.37;;;1.90;;
6517;SDS011;3292;48.944;9.240;2023-09-19T08:22:19;4.30;;;1.97;;
6517;SDS011;3292;48.944;9.240;2023-09-19T08:24:46;3.77;;;1.77;;
6517;SDS011;3292;48.944;9.240;2023-09-19T08:27:14;2.67;;;1.67;;
6517;SDS011;3292;48.944;9.240;2023-09-19T08:29:43;2.30;;;1.63;;
6517;SDS011;3292;48.944;9.240;2023-09-19T08:32:11;2.50;;;1.60;;
6517;SDS011;3292;48.944;9.240;2023-09-19T08:34:38;2.73;;;1.70;;
6517;SDS011;3292;48.944;9.240;2023-09-19T08:37:05;3.87;;;1.70;;
6517;SDS011;3292;48.944;9.240;2023-09-19T08:39:33;2.40;;;1.50;;
6517;SDS011;3292;48.944;9.240;2023-09-19T08:42:02;2.00;;;1.57;;
6517;SDS011;3292;48.944;9.240;2023-09-19T08:44:29;2.37;;;1.60;;
6517;SDS011;3292;48.944;9.240;2023-09-19T08:47:04;1.93;;;1.70;;
6517;SDS011;3292;48.944;9.240;2023-09-19T08:49:37;1.60;;;1.50;;
6517;SDS011;3292;48.944;9.240;2023-09-19T08:52:14;3.93;;;1.80;;
6517;SDS011;3292;48.944;9.240;2023-09-19T08:54:47;1.90;;;1.67;;
6517;SDS011;3292;48.944;9.240;2023-09-19T08:57:17;2.70;;;1.70;;
6517;SDS011;3292;48.944;9.240;2023-09-19T08:59:47;1.60;;;1.40;;
6517;SDS011;3292;48.944;9.240;2023-09-19T09:02:15;1.93;;;1.73;;
6517;SDS011;3292;48.944;9.240;2023-09-19T09:04:44;1.70;;;1.40;;
6517;SDS011;3292;48.944;9.240;2023-09-19T09:07:13;1.93;;;1.63;;
6517;SDS011;3292;48.944;9.240;2023-09-19T09:09:40;1.83;;;1.67;;
6517;SDS011;3292;48.944;9.240;2023-09-19T09:12:11;1.90;;;1.70;;
6517;SDS011;3292;48.944;9.240;2023-09-19T09:14:39;1.60;;;1.50;;
6517;SDS011;3292;48.944;9.240;2023-09-19T09:17:06;2.93;;;1.57;;
6517;SDS011;3292;48.944;9.240;2023-09-19T09:19:33;2.13;;;1.70;;
6517;SDS011;3292;48.944;9.240;2023-09-19T09:22:07;3.00;;;1.80;;
6517;SDS011;3292;48.944;9.240;2023-09-19T09:24:35;2.83;;;1.77;;
6517;SDS011;3292;48.944;9.240;2023-09-19T09:27:03;2.30;;;1.83;;
6517;SDS011;3292;48.944;9.240;2023-09-19T09:29:44;2.53;;;1.67;;
6517;SDS011;3292;48.944;9.240;2023-09-19T09:32:18;1.70;;;1.60;;
6517;SDS011;3292;48.944;9.240;2023-09-19T09:34:49;2.47;;;1.70;;
6517;SDS011;3292;48.944;9.240;2023-09-19T09:37:18;4.03;;;1.90;;
6517;SDS011;3292;48.944;9.240;2023-09-19T09:39:49;2.00;;;1.80;;
6517;SDS011;3292;48.944;9.240;2023-09-19T09:42:28;2.33;;;1.80;;
6517;SDS011;3292;48.944;9.240;2023-09-19T09:48:02;3.83;;;1.60;;
6517;SDS011;3292;48.944;9.240;2023-09-19T09:50:29;2.70;;;1.60;;
6517;SDS011;3292;48.944;9.240;2023-09-19T09:53:22;4.57;;;1.60;;
6517;SDS011;3292;48.944;9.240;2023-09-19T09:56:02;2.10;;;1.50;;
6517;SDS011;3292;48.944;9.240;2023-09-19T09:58:31;2.23;;;1.53;;
6517;SDS011;3292;48.944;9.240;2023-09-19T10:01:01;4.37;;;1.60;;
6517;SDS011;3292;48.944;9.240;2023-09-19T10:03:34;1.90;;;1.60;;
6517;SDS011;3292;48.944;9.240;2023-09-19T10:06:04;2.43;;;1.57;;
6517;SDS011;3292;48.944;9.240;2023-09-19T10:09:02;2.67;;;1.70;;
6517;SDS011;3292;48.944;9.240;2023-09-19T10:11:38;2.27;;;1.50;;
6517;SDS011;3292;48.944;9.240;2023-09-19T10:14:09;1.80;;;1.40;;
6517;SDS011;3292;48.944;9.240;2023-09-19T10:16:39;1.73;;;1.60;;
6517;SDS011;3292;48.944;9.240;2023-09-19T10:19:09;3.67;;;1.70;;
6517;SDS011;3292;48.944;9.240;2023-09-19T10:21:41;2.27;;;1.50;;
6517;SDS011;3292;48.944;9.240;2023-09-19T10:24:10;4.40;;;1.80;;
6517;SDS011;3292;48.944;9.240;2023-09-19T10:26:38;2.57;;;1.67;;
6517;SDS011;3292;48.944;9.240;2023-09-19T10:29:08;2.80;;;1.57;;
6517;SDS011;3292;48.944;9.240;2023-09-19T10:31:36;3.07;;;1.80;;
6517;SDS011;3292;48.944;9.240;2023-09-19T10:34:12;1.90;;;1.47;;
6517;SDS011;3292;48.944;9.240;2023-09-19T10:36:40;2.57;;;1.60;;
6517;SDS011;3292;48.944;9.240;2023-09-19T10:39:12;2.43;;;1.53;;
6517;SDS011;3292;48.944;9.240;2023-09-19T10:41:45;3.13;;;1.60;;
6517;SDS011;3292;48.944;9.240;2023-09-19T10:44:19;2.60;;;1.77;;
6517;SDS011;3292;48.944;9.240;2023-09-19T10:46:51;1.80;;;1.50;;
6517;SDS011;3292;48.944;9.240;2023-09-19T10:49:19;1.80;;;1.37;;
6517;SDS011;3292;48.944;9.240;2023-09-19T10:51:46;1.50;;;1.40;;
6517;SDS011;3292;48.944;9.240;2023-09-19T10:54:16;4.30;;;1.60;;
6517;SDS011;3292;48.944;9.240;2023-09-19T10:56:46;4.60;;;1.80;;
6517;SDS011;3292;48.944;9.240;2023-09-19T10:59:16;3.03;;;1.50;;
6517;SDS011;3292;48.944;9.240;2023-09-19T11:01:45;3.83;;;1.73;;
6517;SDS011;3292;48.944;9.240;2023-09-19T11:04:24;3.57;;;1.97;;
6517;SDS011;3292;48.944;9.240;2023-09-19T11:07:00;4.60;;;1.80;;
6517;SDS011;3292;48.944;9.240;2023-09-19T11:09:46;3.93;;;1.90;;
6517;SDS011;3292;48.944;9.240;2023-09-19T11:24:29;3.43;;;1.80;;
6517;SDS011;3292;48.944;9.240;2023-09-19T11:27:14;3.43;;;1.73;;
6517;SDS011;3292;48.944;9.240;2023-09-19T11:29:42;3.10;;;1.47;;
6517;SDS011;3292;48.944;9.240;2023-09-19T11:32:09;2.07;;;1.70;;
6517;SDS011;3292;48.944;9.240;2023-09-19T11:34:40;4.13;;;1.87;;
6517;SDS011;3292;48.944;9.240;2023-09-19T11:40:36;2.17;;;1.70;;
6517;SDS011;3292;48.944;9.240;2023-09-19T11:46:01;4.03;;;1.70;;
6517;SDS011;3292;48.944;9.240;2023-09-19T11:48:31;3.23;;;1.80;;
6517;SDS011;3292;48.944;9.240;2023-09-19T11:53:47;2.30;;;1.50;;
6517;SDS011;3292;48.944;9.240;2023-09-19T11:56:17;4.10;;;1.60;;
6517;SDS011;3292;48.944;9.240;2023-09-19T11:58:45;2.80;;;1.80;;
6517;SDS011;3292;48.944;9.240;2023-09-19T12:01:21;3.63;;;1.83;;
6517;SDS011;3292;48.944;9.240;2023-09-19T12:03:52;2.73;;;1.60;;
6517;SDS011;3292;48.944;9.240;2023-09-19T12:06:22;3.17;;;1.97;;
6517;SDS011;3292;48.944;9.240;2023-09-19T12:08:49;1.90;;;1.60;;
6517;SDS011;3292;48.944;9.240;2023-09-19T12:11:22;3.23;;;1.60;;
6517;SDS011;3292;48.944;9.240;2023-09-19T12:13:49;2.33;;;1.70;;
6517;SDS011;3292;48.944;9.240;2023-09-19T12:16:18;2.47;;;1.50;;
6517;SDS011;3292;48.944;9.240;2023-09-19T12:18:49;3.50;;;1.70;;
6517;SDS011;3292;48.944;9.240;2023-09-19T12:21:23;1.95;;;1.60;;
6517;SDS011;3292;48.944;9.240;2023-09-19T12:26:43;2.70;;;1.80;;
6517;SDS011;3292;48.944;9.240;2023-09-19T12:29:13;3.53;;;1.70;;
6517;SDS011;3292;48.944;9.240;2023-09-19T12:31:49;5.25;;;1.70;;
6517;SDS011;3292;48.944;9.240;2023-09-19T12:34:19;2.00;;;1.60;;
6517;SDS011;3292;48.944;9.240;2023-09-19T12:36:46;1.95;;;1.75;;
6517;SDS011;3292;48.944;9.240;2023-09-19T12:39:22;3.50;;;1.70;;
6517;SDS011;3292;48.944;9.240;2023-09-19T12:41:52;1.95;;;1.42;;
6517;SDS011;3292;48.944;9.240;2023-09-19T12:44:19;1.87;;;1.60;;
6517;SDS011;3292;48.944;9.240;2023-09-19T12:46:46;2.42;;;1.60;;
6517;SDS011;3292;48.944;9.240;2023-09-19T12:49:16;3.22;;;1.75;;
6517;SDS011;3292;48.944;9.240;2023-09-19T12:51:44;2.45;;;1.80;;
6517;SDS011;3292;48.944;9.240;2023-09-19T12:54:12;3.20;;;1.83;;
6517;SDS011;3292;48.944;9.240;2023-09-19T12:56:41;1.80;;;1.60;;
6517;SDS011;3292;48.944;9.240;2023-09-19T12:59:11;3.45;;;1.70;;
6517;SDS011;3292;48.944;9.240;2023-09-19T13:01:39;2.00;;;1.50;;
6517;SDS011;3292;48.944;9.240;2023-09-19T13:04:10;3.03;;;1.70;;
6517;SDS011;3292;48.944;9.240;2023-09-19T13:06:40;1.98;;;1.70;;
6517;SDS011;3292;48.944;9.240;2023-09-19T13:09:09;2.10;;;1.80;;
6517;SDS011;3292;48.944;9.240;2023-09-19T13:11:36;2.97;;;1.75;;
6517;SDS011;3292;48.944;9.240;2023-09-19T13:14:17;1.92;;;1.48;;
6517;SDS011;3292;48.944;9.240;2023-09-19T13:16:55;2.67;;;1.58;;
6517;SDS011;3292;48.944;9.240;2023-09-19T13:25:03;2.85;;;1.80;;
6517;SDS011;3292;48.944;9.240;2023-09-19T13:27:31;2.33;;;2.00;;
6517;SDS011;3292;48.944;9.240;2023-09-19T13:30:00;3.45;;;1.80;;
6517;SDS011;3292;48.944;9.240;2023-09-19T13:32:26;2.33;;;1.88;;
6517;SDS011;3292;48.944;9.240;2023-09-19T13:34:53;3.17;;;2.10;;
6517;SDS011;3292;48.944;9.240;2023-09-19T13:37:20;3.40;;;1.75;;
6517;SDS011;3292;48.944;9.240;2023-09-19T13:39:47;2.97;;;1.63;;
6517;SDS011;3292;48.944;9.240;2023-09-19T13:42:14;2.10;;;1.90;;
6517;SDS011;3292;48.944;9.240;2023-09-19T13:44:41;4.38;;;1.75;;
6517;SDS011;3292;48.944;9.240;2023-09-19T13:47:09;3.25;;;1.60;;
6517;SDS011;3292;48.944;9.240;2023-09-19T13:49:38;1.77;;;1.67;;
6517;SDS011;3292;48.944;9.240;2023-09-19T13:52:05;5.00;;;1.70;;
6517;SDS011;3292;48.944;9.240;2023-09-19T13:54:32;2.83;;;1.60;;
6517;SDS011;3292;48.944;9.240;2023-09-19T13:56:59;3.25;;;1.73;;
6517;SDS011;3292;48.944;9.240;2023-09-19T13:59:26;3.67;;;1.50;;
6517;SDS011;3292;48.944;9.240;2023-09-19T14:01:53;2.72;;;1.80;;
6517;SDS011;3292;48.944;9.240;2023-09-19T14:04:21;1.73;;;1.50;;
6517;SDS011;3292;48.944;9.240;2023-09-19T14:06:48;3.38;;;1.73;;
6517;SDS011;3292;48.944;9.240;2023-09-19T14:09:15;4.85;;;1.70;;
6517;SDS011;3292;48.944;9.240;2023-09-19T14:11:44;3.15;;;1.80;;
6517;SDS011;3292;48.944;9.240;2023-09-19T14:14:12;5.53;;;1.75;;
6517;SDS011;3292;48.944;9.240;2023-09-19T14:16:40;2.95;;;1.52;;
6517;SDS011;3292;48.944;9.240;2023-09-19T14:19:07;2.35;;;1.55;;
6517;SDS011;3292;48.944;9.240;2023-09-19T14:21:35;2.03;;;1.60;;
6517;SDS011;3292;48.944;9.240;2023-09-19T14:24:04;3.08;;;1.50;;
6517;SDS011;3292;48.944;9.240;2023-09-19T14:26:34;2.13;;;1.48;;
6517;SDS011;3292;48.944;9.240;2023-09-19T14:29:01;2.42;;;1.52;;
6517;SDS011;3292;48.944;9.240;2023-09-19T14:31:28;3.13;;;1.75;;
6517;SDS011;3292;48.944;9.240;2023-09-19T14:33:55;2.90;;;1.48;;
6517;SDS011;3292;48.944;9.240;2023-09-19T14:36:22;3.30;;;1.80;;
6517;SDS011;3292;48.944;9.240;2023-09-19T14:38:53;4.13;;;1.60;;
6517;SDS011;3292;48.944;9.240;2023-09-19T14:41:20;3.45;;;1.60;;
6517;SDS011;3292;48.944;9.240;2023-09-19T14:43:48;3.10;;;1.33;;
6517;SDS011;3292;48.944;9.240;2023-09-19T14:46:15;2.45;;;1.67;;
6517;SDS011;3292;48.944;9.240;2023-09-19T14:48:43;3.67;;;1.60;;
6517;SDS011;3292;48.944;9.240;2023-09-19T14:51:12;1.40;;;1.30;;
6517;SDS011;3292;48.944;9.240;2023-09-19T14:53:39;2.50;;;1.70;;
6517;SDS011;3292;48.944;9.240;2023-09-19T14:56:08;2.75;;;1.70;;
6517;SDS011;3292;48.944;9.240;2023-09-19T14:58:36;2.63;;;1.70;;
6517;SDS011;3292;48.944;9.240;2023-09-19T15:01:05;1.85;;;1.50;;
6517;SDS011;3292;48.944;9.240;2023-09-19T15:03:32;5.15;;;1.80;;
6517;SDS011;3292;48.944;9.240;2023-09-19T15:06:01;2.08;;;1.75;;
6517;SDS011;3292;48.944;9.240;2023-09-19T15:08:29;1.65;;;1.55;;
6517;SDS011;3292;48.944;9.240;2023-09-19T15:10:57;3.40;;;1.77;;
6517;SDS011;3292;48.944;9.240;2023-09-19T15:13:30;2.17;;;1.50;;
6517;SDS011;3292;48.944;9.240;2023-09-19T15:15:59;2.13;;;1.67;;
6517;SDS011;3292;48.944;9.240;2023-09-19T15:18:27;1.67;;;1.50;;
6517;SDS011;3292;48.944;9.240;2023-09-19T15:20:55;2.03;;;1.40;;
6517;SDS011;3292;48.944;9.240;2023-09-19T15:23:21;3.22;;;1.63;;
6517;SDS011;3292;48.944;9.240;2023-09-19T15:25:48;3.00;;;1.55;;
6517;SDS011;3292;48.944;9.240;2023-09-19T15:28:16;1.33;;;1.23;;
6517;SDS011;3292;48.944;9.240;2023-09-19T15:30:44;1.58;;;1.48;;
6517;SDS011;3292;48.944;9.240;2023-09-19T15:33:10;2.58;;;1.50;;
6517;SDS011;3292;48.944;9.240;2023-09-19T15:35:37;1.90;;;1.60;;
6517;SDS011;3292;48.944;9.240;2023-09-19T15:38:04;1.88;;;1.45;;
6517;SDS011;3292;48.944;9.240;2023-09-19T15:40:32;2.38;;;1.40;;
6517;SDS011;3292;48.944;9.240;2023-09-19T15:42:59;2.28;;;1.60;;
6517;SDS011;3292;48.944;9.240;2023-09-19T15:45:26;1.63;;;1.50;;
6517;SDS011;3292;48.944;9.240;2023-09-19T15:47:54;2.00;;;1.50;;
6517;SDS011;3292;48.944;9.240;2023-09-19T15:50:21;2.03;;;1.60;;
6517;SDS011;3292;48.944;9.240;2023-09-19T15:52:51;2.33;;;1.60;;
6517;SDS011;3292;48.944;9.240;2023-09-19T15:55:20;2.25;;;1.90;;
6517;SDS011;3292;48.944;9.240;2023-09-19T15:57:46;1.63;;;1.38;;
6517;SDS011;3292;48.944;9.240;2023-09-19T16:00:14;1.83;;;1.53;;